Shoals, Indiana
Current Conditions -  °F | °C
As of 8:35 AM on Saturday 25 Oct 2014 (Local Time) from KDCY Reporting Station
Scattered Clouds Scattered Clouds  
Wind Chill: 60°   Ceiling: Unl
Heat Index: 60°   Visibility: 10mi
Dew Point: 56°   Wind: 6mph
Humidity: 88%   Direction: 250°WSW
Pressure: 30.01"   Gusts: NA
Location:  38.67°N, 86.79°W
Report Text: KDCY 251335Z AUTO 25005KT 10SM SCT046 16/14 A3001 RMK AO2 T01550135
Loading
Personal Weather Stations






























Interactive Weather Map
Tropical Storm Tracking
New forecast layout! Learn more

10-Day Weather Forecast

Advertisements
Track Severe Weather on mobile